Deschaillons-Sur-Saint-Laurent, Canada
Current Conditions -  °F | °C
As of 8:00 AM on Friday 19 Dec 2014 (Local Time) from CYRQ Reporting Station
Clear Clear  
Wind Chill: 18°   Ceiling: Unl
Heat Index: 18°   Visibility: 9mi
Dew Point: 12°   Wind: 3mph
Humidity: 79%   Direction: 300°WNW
Pressure: 30"   Gusts: NA
Location:  46.55°N, 72.12°W
Report Text: CYRQ 191300Z AUTO 30003KT 270V350 9SM CLR M08/M11 A3000 RMK SLP163
Loading
Personal Weather Stations






























Interactive Weather Map New forecast layout! Learn more

10-Day Weather Forecast

Advertisements
Track Severe Weather on mobile